Time;durP1;ratioP1;P1;durP2;ratioP2;P2;SDS_P1;SDS_P2;PMS_P1;PMS_P2;Temp;Humidity;BMP_temperature;BMP_pressure;BME280_temperature;BME280_humidity;BME280_pressure;Samples;Min_cycle;Max_cycle;Signal;HPM_P1;HPM_P2
2022/08/17 00:00:25;;;;;;;9.48;7.67;;;;;;;19.34;91.30;96082.14;1675885;84;21068;-81
2022/08/17 00:03:14;;;;;;;9.88;8.13;;;;;;;19.33;91.33;96092.41;1640320;84;21453;-81
2022/08/17 00:06:10;;;;;;;12.65;8.80;;;;;;;19.30;91.22;96086.31;1688433;83;21020;-81
2022/08/17 00:08:38;;;;;;;14.93;9.05;;;;;;;19.28;91.16;96096.30;1683658;83;21417;-81
2022/08/17 00:11:22;;;;;;;9.90;8.35;;;;;;;19.27;91.59;96082.05;1668835;85;21067;-82
2022/08/17 00:14:17;;;;;;;;;;;;;;;;;;;;;
2022/08/17 00:16:55;;;;;;;9.88;8.35;;;;;;;19.25;92.12;96080.98;1659989;85;21021;-81
2022/08/17 00:19:39;;;;;;;8.85;7.53;;;;;;;19.25;92.16;96082.82;1568324;90;21095;-81
2022/08/17 00:22:24;;;;;;;9.38;8.08;;;;;;;19.25;91.98;96092.05;1645923;85;21044;-81
2022/08/17 00:25:18;;;;;;;10.48;8.18;;;;;;;19.24;92.05;96087.30;1586438;88;20993;-81
2022/08/17 00:28:15;;;;;;;9.33;8.08;;;;;;;19.22;92.10;96086.74;1662787;85;20984;-81
2022/08/17 00:30:39;;;;;;;9.30;8.08;;;;;;;19.23;92.36;96079.64;1665142;85;21513;-82
2022/08/17 00:33:41;;;;;;;;;;;;;;;;;;;;;
2022/08/17 00:36:27;;;;;;;;;;;;;;;;;;;;;
2022/08/17 00:38:59;;;;;;;9.25;8.23;;;;;;;19.22;92.87;96081.47;1661396;84;21124;-81
2022/08/17 00:41:58;;;;;;;9.48;8.58;;;;;;;19.21;92.96;96080.41;1663801;85;21503;-80
2022/08/17 00:44:15;;;;;;;10.88;8.93;;;;;;;19.19;93.17;96081.94;1623138;85;21017;-81
2022/08/17 00:47:00;;;;;;;12.50;8.93;;;;;;;19.17;93.20;96086.13;1660787;84;21023;-81
2022/08/17 00:49:34;;;;;;;10.43;9.35;;;;;;;19.16;93.27;96090.33;1660682;84;21012;-81
2022/08/17 00:52:11;;;;;;;10.95;8.88;;;;;;;19.14;93.47;96096.36;1659748;86;22067;-82
2022/08/17 00:54:43;;;;;;;10.58;8.70;;;;;;;19.12;93.63;96093.97;1672668;84;21023;-82
2022/08/17 00:57:44;;;;;;;10.23;9.15;;;;;;;19.11;93.84;96092.38;1672250;84;21101;-81
2022/08/17 01:00:27;;;;;;;10.15;8.55;;;;;;;19.10;93.76;96088.16;1631556;85;21521;-81
2022/08/17 01:03:18;;;;;;;10.48;9.40;;;;;;;19.11;93.96;96086.31;1640129;86;20973;-82
2022/08/17 01:06:03;;;;;;;10.25;9.25;;;;;;;19.13;94.02;96082.92;1647767;85;21392;-82
2022/08/17 01:09:13;;;;;;;10.82;9.18;;;;;;;19.11;94.15;96087.11;1647247;84;21157;-81
2022/08/17 01:11:45;;;;;;;10.68;9.00;;;;;;;19.12;94.23;96083.95;1678109;83;21108;-81
2022/08/17 01:14:28;;;;;;;12.00;9.68;;;;;;;19.13;94.44;96089.50;1659534;83;21020;-81
2022/08/17 01:17:27;;;;;;;;;;;;;;;;;;;;;
2022/08/17 01:20:09;;;;;;;11.43;9.98;;;;;;;19.12;94.29;96087.39;1624136;86;21048;-82
2022/08/17 01:22:57;;;;;;;11.60;8.80;;;;;;;19.12;94.50;96091.34;1635030;86;21119;-82
2022/08/17 01:25:56;;;;;;;10.10;9.08;;;;;;;19.11;94.69;96092.38;1589102;88;21499;-81
2022/08/17 01:28:10;;;;;;;14.63;9.73;;;;;;;19.09;94.60;96091.83;1578332;85;21048;-81
2022/08/17 01:30:36;;;;;;;11.08;8.95;;;;;;;19.08;94.66;96092.08;1666310;85;20973;-82
2022/08/17 01:33:02;;;;;;;10.63;9.40;;;;;;;19.08;94.63;96096.02;1668522;85;21380;-82
2022/08/17 01:35:28;;;;;;;10.13;8.80;;;;;;;19.07;94.58;96101.81;1669124;85;20989;-81
2022/08/17 01:37:53;;;;;;;11.68;9.28;;;;;;;19.08;94.58;96102.09;1663158;85;21023;-81
2022/08/17 01:40:37;;;;;;;11.03;8.78;;;;;;;19.08;94.53;96104.72;1653414;85;20981;-81
2022/08/17 01:43:14;;;;;;;10.03;8.93;;;;;;;19.07;94.69;96098.37;1647324;85;21021;-81
2022/08/17 01:45:43;;;;;;;10.95;9.18;;;;;;;19.04;94.58;96098.35;1680373;83;21045;-81
2022/08/17 01:48:10;;;;;;;11.53;9.48;;;;;;;19.04;94.57;96102.81;1690329;83;21382;-81
2022/08/17 01:50:36;;;;;;;10.68;9.10;;;;;;;19.03;94.65;96099.88;1665071;85;21014;-82
2022/08/17 01:53:10;;;;;;;10.32;8.85;;;;;;;19.03;94.75;96100.67;1676836;84;21098;-81
2022/08/17 01:55:49;;;;;;;11.15;8.95;;;;;;;19.05;94.74;96095.20;1675838;84;21394;-82
2022/08/17 01:58:15;;;;;;;10.30;9.15;;;;;;;19.05;94.46;96095.99;1673580;83;21075;-82
2022/08/17 02:00:43;;;;;;;11.85;10.30;;;;;;;19.05;94.43;96094.67;1707392;83;20944;-81
2022/08/17 02:03:09;;;;;;;11.53;9.55;;;;;;;19.05;94.39;96094.67;1687980;83;21020;-82
2022/08/17 02:05:35;;;;;;;13.15;9.90;;;;;;;19.07;94.40;96095.75;1679328;84;20969;-81
2022/08/17 02:08:02;;;;;;;10.98;9.78;;;;;;;19.07;94.35;96097.06;1683952;83;20998;-81
2022/08/17 02:10:29;;;;;;;10.43;8.85;;;;;;;19.08;94.33;96102.09;1703261;83;21095;-82
2022/08/17 02:12:54;;;;;;;10.32;9.20;;;;;;;19.11;94.22;96097.65;1696719;84;21041;-81
2022/08/17 02:15:20;;;;;;;10.10;9.10;;;;;;;19.11;93.85;96095.02;1686737;83;21464;-81
2022/08/17 02:17:46;;;;;;;10.95;9.43;;;;;;;19.10;93.57;96092.63;1676576;83;20972;-81
2022/08/17 02:20:12;;;;;;;11.10;9.88;;;;;;;19.10;93.58;96087.36;1695070;83;20989;-82
2022/08/17 02:22:41;;;;;;;12.68;9.38;;;;;;;19.11;93.55;96083.69;1692656;83;20939;-82
2022/08/17 02:25:08;;;;;;;11.70;9.65;;;;;;;19.10;93.56;96086.84;1705293;83;21033;-81
2022/08/17 02:27:35;;;;;;;11.30;10.20;;;;;;;19.10;93.73;96087.36;1691847;83;21031;-81
2022/08/17 02:30:04;;;;;;;11.20;10.00;;;;;;;19.11;93.75;96084.48;1681207;83;21364;-82
2022/08/17 02:32:30;;;;;;;11.68;9.78;;;;;;;19.11;93.86;96079.73;1681980;83;21035;-81
2022/08/17 02:34:57;;;;;;;12.35;9.58;;;;;;;19.12;94.02;96087.91;1689596;83;21135;-81
2022/08/17 02:37:24;;;;;;;11.75;10.05;;;;;;;19.12;94.17;96082.64;1702787;83;20927;-81
2022/08/17 02:39:50;;;;;;;11.18;9.60;;;;;;;19.11;94.22;96077.10;1701356;83;21015;-82
2022/08/17 02:42:15;;;;;;;11.63;10.45;;;;;;;19.10;94.10;96084.72;1682477;83;21028;-81
2022/08/17 02:44:41;;;;;;;11.48;10.15;;;;;;;19.10;93.96;96088.16;1669735;84;21071;-82
2022/08/17 02:47:08;;;;;;;10.50;9.40;;;;;;;19.08;93.99;96088.92;1696682;83;21115;-81
2022/08/17 02:49:33;;;;;;;11.33;9.35;;;;;;;19.08;94.15;96089.44;1682430;83;21056;-84
2022/08/17 02:52:03;;;;;;;11.55;10.32;;;;;;;19.03;93.98;96086.20;1690278;83;20983;-83
2022/08/17 02:54:28;;;;;;;12.90;10.40;;;;;;;19.03;94.01;96088.03;1676983;84;21467;-84
2022/08/17 02:56:54;;;;;;;12.05;10.58;;;;;;;19.02;94.19;96091.19;1675292;83;21140;-82
2022/08/17 02:59:20;;;;;;;12.10;10.80;;;;;;;19.02;94.48;96095.13;1672248;84;20923;-82
2022/08/17 03:01:46;;;;;;;14.18;11.40;;;;;;;19.00;94.77;96093.27;1696922;83;21349;-80
2022/08/17 03:04:11;;;;;;;14.15;12.00;;;;;;;19.01;94.88;96100.13;1705577;83;21021;-82
2022/08/17 03:06:37;;;;;;;13.03;11.22;;;;;;;19.00;95.24;96096.42;1677586;84;20958;-82
2022/08/17 03:09:03;;;;;;;14.15;11.35;;;;;;;18.99;95.33;96104.84;1659114;85;21349;-82
2022/08/17 03:11:30;;;;;;;13.48;11.40;;;;;;;19.01;95.51;96105.91;1680380;83;21001;-82
2022/08/17 03:13:57;;;;;;;15.83;11.53;;;;;;;19.02;95.77;96100.92;1670699;84;20946;-81
2022/08/17 03:16:23;;;;;;;15.10;12.00;;;;;;;19.02;95.88;96104.88;1672263;84;21056;-81
2022/08/17 03:18:48;;;;;;;14.03;12.37;;;;;;;19.02;95.84;96103.55;1643965;86;21432;-82
2022/08/17 03:21:14;;;;;;;15.28;12.40;;;;;;;19.00;95.78;96105.11;1674660;84;20980;-81
2022/08/17 03:23:41;;;;;;;13.20;11.65;;;;;;;19.00;95.69;96113.02;1673389;84;21015;-81
2022/08/17 03:26:09;;;;;;;13.13;11.73;;;;;;;19.00;95.78;96120.11;1679342;84;21024;-81
2022/08/17 03:28:39;;;;;;;14.58;12.23;;;;;;;19.00;95.66;96117.48;1673532;84;21064;-82
2022/08/17 03:31:05;;;;;;;13.62;11.08;;;;;;;19.01;95.81;96118.55;1677217;84;21088;-81
2022/08/17 03:33:31;;;;;;;13.75;10.32;;;;;;;19.01;95.71;96121.70;1679244;83;20988;-83
2022/08/17 03:35:57;;;;;;;12.33;11.03;;;;;;;19.01;95.80;96122.50;1665063;84;21319;-84
2022/08/17 03:38:23;;;;;;;12.60;11.30;;;;;;;19.01;95.86;96122.50;1671294;83;20905;-84
2022/08/17 03:40:49;;;;;;;13.18;11.40;;;;;;;18.99;95.92;96123.27;1673389;84;21277;-84
2022/08/17 03:43:16;;;;;;;15.38;11.05;;;;;;;18.97;95.96;96122.72;1666511;85;21016;-84
2022/08/17 03:56:56;;;;;;;13.35;11.15;;;;;;;18.95;96.05;96134.01;1676129;84;21081;-81
2022/08/17 03:59:21;;;;;;;12.30;11.00;;;;;;;18.96;96.22;96139.55;1659673;84;20995;-81
2022/08/17 04:01:51;;;;;;;14.45;11.73;;;;;;;18.95;96.34;96141.11;1672471;84;20981;-81
2022/08/17 04:04:17;;;;;;;11.95;10.43;;;;;;;18.95;96.70;96141.91;1675813;84;21391;-84
2022/08/17 04:06:45;;;;;;;11.33;10.15;;;;;;;18.96;96.78;96144.02;1679111;84;21121;-84
2022/08/17 04:09:11;;;;;;;12.70;10.05;;;;;;;18.98;96.74;96137.99;1662301;84;21359;-83
2022/08/17 04:11:38;;;;;;;12.47;10.25;;;;;;;18.98;96.87;96142.73;1618661;85;21432;-83
2022/08/17 04:14:05;;;;;;;12.13;10.45;;;;;;;18.98;96.99;96145.89;1602105;87;22564;-84
2022/08/17 04:16:32;;;;;;;13.03;11.00;;;;;;;18.98;97.16;96143.26;1637474;86;21063;-81
2022/08/17 04:18:58;;;;;;;12.30;10.90;;;;;;;18.97;97.33;96141.66;1640742;86;21119;-82
2022/08/17 04:21:27;;;;;;;13.95;10.35;;;;;;;18.99;97.45;96149.59;1636915;86;22023;-82
2022/08/17 04:23:52;;;;;;;11.45;10.28;;;;;;;19.00;97.51;96149.88;1633524;86;20988;-82
2022/08/17 04:26:19;;;;;;;13.70;11.08;;;;;;;19.03;97.56;96149.39;1638705;86;21109;-81
2022/08/17 04:28:44;;;;;;;13.50;9.75;;;;;;;19.07;97.56;96144.46;1664052;84;21034;-81
2022/08/17 04:31:11;;;;;;;11.60;10.48;;;;;;;19.10;97.50;96146.61;1668699;85;21008;-81
2022/08/17 04:33:42;;;;;;;11.93;10.68;;;;;;;19.12;97.53;96148.48;1666289;84;20997;-81
2022/08/17 04:36:08;;;;;;;11.73;10.53;;;;;;;19.11;97.60;96144.25;1675904;85;21004;-82
2022/08/17 04:38:37;;;;;;;12.10;10.82;;;;;;;19.15;97.79;96147.99;1672377;84;21000;-81
2022/08/17 04:43:48;;;;;;;12.33;11.03;;;;;;;19.18;98.07;96150.14;1662706;85;21380;-81
2022/08/17 04:46:18;;;;;;;13.48;11.80;;;;;;;19.19;98.16;96147.78;1668542;84;21021;-81
2022/08/17 04:48:46;;;;;;;12.65;11.40;;;;;;;19.21;98.35;96148.36;1669824;85;21120;-81
2022/08/17 04:51:32;;;;;;;14.10;11.48;;;;;;;19.24;98.44;96158.41;1665119;84;21015;-82
2022/08/17 04:54:01;;;;;;;13.48;11.68;;;;;;;19.26;98.65;96156.33;1664786;84;20969;-82
2022/08/17 04:56:28;;;;;;;12.88;11.15;;;;;;;19.29;98.74;96161.63;1666047;84;21483;-82
2022/08/17 04:58:58;;;;;;;13.25;11.25;;;;;;;19.31;98.94;96162.18;1664810;84;21045;-82
2022/08/17 05:01:26;;;;;;;12.88;11.60;;;;;;;19.32;99.01;96162.45;1632130;86;20988;-82
2022/08/17 05:03:55;;;;;;;13.55;12.05;;;;;;;19.33;99.14;96158.27;1664138;85;21006;-82
2022/08/17 05:06:21;;;;;;;12.73;11.43;;;;;;;19.36;99.17;96160.44;1666062;85;20972;-82
2022/08/17 05:08:46;;;;;;;13.93;12.33;;;;;;;19.40;99.28;96163.38;1668955;85;21000;-81
2022/08/17 05:11:13;;;;;;;13.53;12.13;;;;;;;19.43;99.34;96163.69;1674834;84;21045;-81
2022/08/17 05:13:44;;;;;;;13.05;11.75;;;;;;;19.46;99.44;96168.98;1684151;83;21166;-84
2022/08/17 05:16:14;;;;;;;12.78;11.55;;;;;;;19.48;99.44;96170.85;1650264;85;20999;-84
2022/08/17 05:18:37;;;;;;;13.28;11.45;;;;;;;19.51;99.56;96170.36;1666722;84;20999;-84
2022/08/17 05:21:05;;;;;;;13.00;11.50;;;;;;;19.54;99.59;96176.52;1685501;83;21350;-84
2022/08/17 05:23:31;;;;;;;12.95;11.70;;;;;;;19.62;99.81;96176.61;1676412;84;21103;-84
2022/08/17 05:25:57;;;;;;;12.93;11.63;;;;;;;19.67;99.63;96180.10;1681201;83;21545;-84
2022/08/17 05:28:26;;;;;;;12.93;11.70;;;;;;;19.72;99.62;96182.83;1679033;84;21068;-83
2022/08/17 05:30:52;;;;;;;13.98;12.53;;;;;;;19.76;99.50;96181.81;1690233;83;20997;-84
2022/08/17 05:33:21;;;;;;;13.43;12.00;;;;;;;19.79;99.49;96184.75;1680534;83;21072;-84
2022/08/17 05:35:50;;;;;;;13.78;12.35;;;;;;;19.87;99.64;96185.38;1686655;83;21136;-84
2022/08/17 05:38:18;;;;;;;13.83;12.37;;;;;;;19.91;99.40;96185.95;1690334;83;20990;-85
2022/08/17 05:40:44;;;;;;;13.88;12.47;;;;;;;19.96;99.21;96187.33;1670637;83;20975;-84
2022/08/17 05:43:17;;;;;;;14.80;13.20;;;;;;;19.99;98.96;96185.52;1692027;83;20944;-84
2022/08/17 05:46:07;;;;;;;13.53;12.23;;;;;;;20.02;98.95;96190.32;1685132;83;20977;-84
2022/08/17 05:48:36;;;;;;;13.95;12.40;;;;;;;20.04;98.88;96190.87;1689690;83;21370;-84
2022/08/17 05:51:24;;;;;;;14.73;13.22;;;;;;;20.07;98.95;96183.78;1681744;83;20976;-83
2022/08/17 05:54:31;;;;;;;13.83;12.25;;;;;;;20.11;98.88;96183.28;1685203;83;21061;-82
2022/08/17 05:57:28;;;;;;;13.55;12.23;;;;;;;20.16;98.91;96185.97;1677675;83;21036;-82
2022/08/17 06:00:11;;;;;;;14.30;12.90;;;;;;;20.19;98.44;96185.50;1682910;83;21047;-82
2022/08/17 06:03:15;;;;;;;14.00;12.40;;;;;;;20.25;98.26;96189.78;1683798;83;21004;-82
2022/08/17 06:06:17;;;;;;;15.13;12.73;;;;;;;20.28;97.91;96186.12;1677585;83;21009;-82
2022/08/17 06:09:00;;;;;;;13.87;12.57;;;;;;;20.31;97.47;96181.66;1652751;85;21436;-82
2022/08/17 06:11:55;;;;;;;13.68;11.33;;;;;;;20.33;97.70;96176.92;1671680;84;21739;-81
2022/08/17 06:14:39;;;;;;;14.33;12.05;;;;;;;20.38;97.54;96173.05;1659515;84;21019;-82
2022/08/17 06:17:12;;;;;;;13.58;12.20;;;;;;;20.44;97.23;96179.19;1661868;85;21415;-82
2022/08/17 06:19:49;;;;;;;16.10;12.88;;;;;;;20.49;97.23;96179.23;1672178;85;20985;-82
2022/08/17 06:22:18;;;;;;;16.35;12.55;;;;;;;20.54;96.80;96173.23;1664787;85;21418;-82
2022/08/17 06:25:09;;;;;;;15.93;14.23;;;;;;;20.56;96.63;96175.89;1667176;84;21042;-82
2022/08/17 06:27:42;;;;;;;16.02;12.90;;;;;;;20.59;96.40;96177.23;1646505;85;21101;-82
2022/08/17 06:30:25;;;;;;;14.63;12.60;;;;;;;20.63;96.31;96178.31;1661675;85;21037;-82
2022/08/17 06:32:53;;;;;;;14.95;13.00;;;;;;;20.70;96.31;96188.16;1668846;85;21367;-82
2022/08/17 06:35:54;;;;;;;16.37;12.13;;;;;;;20.77;96.15;96181.34;1672129;84;20970;-82
2022/08/17 06:38:53;;;;;;;13.20;11.65;;;;;;;20.84;95.87;96183.27;1667368;84;21055;-82
2022/08/17 06:41:36;;;;;;;12.45;11.08;;;;;;;20.88;95.74;96183.04;1655227;85;21055;-82
2022/08/17 06:44:13;;;;;;;15.58;13.18;;;;;;;20.92;95.57;96186.23;1661210;84;21036;-82
2022/08/17 06:46:47;;;;;;;13.83;12.05;;;;;;;20.96;95.04;96184.68;1658082;85;20941;-81
2022/08/17 06:49:24;;;;;;;12.47;11.25;;;;;;;21.05;95.04;96188.19;1672525;85;21042;-82
2022/08/17 06:51:56;;;;;;;12.43;11.22;;;;;;;21.11;94.82;96190.61;1657610;85;21064;-82
2022/08/17 06:54:34;;;;;;;13.40;12.13;;;;;;;21.16;94.87;96188.03;1667605;84;21032;-82
2022/08/17 06:57:16;;;;;;;13.15;11.85;;;;;;;21.20;94.42;96183.03;1673651;85;21032;-82
2022/08/17 06:59:52;;;;;;;18.12;13.68;;;;;;;21.23;94.82;96181.20;1657573;85;20975;-82
2022/08/17 07:02:30;;;;;;;15.65;13.93;;;;;;;21.28;94.06;96181.25;1657531;84;21083;-84
2022/08/17 07:05:00;;;;;;;16.65;14.58;;;;;;;21.36;93.69;96189.25;1676595;85;21494;-84
2022/08/17 07:10:10;;;;;;;14.00;12.55;;;;;;;21.50;93.90;96191.20;1674703;84;21077;-85
2022/08/17 07:12:39;;;;;;;14.20;12.75;;;;;;;21.55;93.74;96188.57;1681885;84;20990;-84
2022/08/17 07:15:22;;;;;;;13.58;11.78;;;;;;;21.60;93.44;96194.94;1681154;83;20999;-84
2022/08/17 07:17:48;;;;;;;13.80;12.23;;;;;;;21.62;93.33;96188.33;1694074;83;20980;-84
2022/08/17 07:20:19;;;;;;;16.25;14.55;;;;;;;21.68;93.08;96199.75;1688715;83;20993;-84
2022/08/17 07:23:26;;;;;;;17.95;15.68;;;;;;;21.74;92.24;96200.05;1687881;82;21084;-84
2022/08/17 07:25:53;;;;;;;16.30;14.05;;;;;;;21.81;91.33;96203.27;1673088;83;21006;-82
2022/08/17 07:28:21;;;;;;;16.67;14.23;;;;;;;21.91;91.46;96200.66;1615116;86;21020;-82
2022/08/17 07:30:51;;;;;;;16.30;14.68;;;;;;;21.98;91.35;96205.20;1679751;83;21100;-82
2022/08/17 07:33:24;;;;;;;16.55;14.80;;;;;;;22.05;90.57;96205.78;1683869;83;21041;-82
2022/08/17 07:35:50;;;;;;;16.20;14.50;;;;;;;22.15;90.18;96204.51;1674310;83;21039;-82
2022/08/17 07:38:26;;;;;;;15.98;14.30;;;;;;;22.25;89.35;96203.73;1680167;83;21009;-85
2022/08/17 07:40:59;;;;;;;16.27;14.07;;;;;;;22.34;89.25;96206.16;1687671;83;21418;-84
2022/08/17 07:43:38;;;;;;;13.95;12.50;;;;;;;22.40;89.39;96201.66;1685763;83;21367;-84
2022/08/17 07:49:13;;;;;;;14.43;12.80;;;;;;;22.53;89.35;96206.47;1681220;84;21399;-84
2022/08/17 07:51:49;;;;;;;13.80;12.35;;;;;;;22.58;88.77;96206.47;1682980;83;20968;-84
2022/08/17 07:54:23;;;;;;;16.00;12.63;;;;;;;22.64;88.90;96207.30;1687765;83;21007;-83
2022/08/17 07:57:09;;;;;;;14.78;13.35;;;;;;;22.69;88.55;96210.73;1685194;83;21496;-84
2022/08/17 07:59:38;;;;;;;12.68;11.38;;;;;;;22.77;87.31;96206.77;1677608;83;21482;-84
2022/08/17 08:02:37;;;;;;;13.48;12.18;;;;;;;22.81;88.08;96203.09;1655072;85;20989;-84
2022/08/17 08:05:20;;;;;;;13.18;11.83;;;;;;;22.87;87.72;96208.67;1652709;85;20981;-84
2022/08/17 08:08:08;;;;;;;13.25;12.05;;;;;;;22.95;86.79;96210.81;1671635;83;21084;-84
2022/08/17 08:10:41;;;;;;;13.35;11.90;;;;;;;22.94;85.69;96194.12;1677572;83;21458;-85
2022/08/17 08:13:23;;;;;;;13.00;11.80;;;;;;;23.09;86.11;96209.73;1674835;83;21044;-85
2022/08/17 08:15:55;;;;;;;14.75;13.30;;;;;;;23.15;85.28;96214.00;1686279;83;21461;-85
2022/08/17 08:18:35;;;;;;;14.65;13.18;;;;;;;23.21;84.49;96217.69;1676875;83;21072;-84
2022/08/17 08:21:24;;;;;;;13.25;12.05;;;;;;;23.28;83.96;96218.24;1680444;83;21395;-84
2022/08/17 08:24:09;;;;;;;13.22;11.93;;;;;;;23.37;84.62;96217.16;1682448;83;21051;-84
2022/08/17 08:27:01;;;;;;;12.18;11.12;;;;;;;23.46;84.81;96224.06;1672199;83;21434;-84
2022/08/17 08:29:51;;;;;;;13.58;12.33;;;;;;;23.58;85.16;96219.28;1672736;83;21413;-84
2022/08/17 08:32:55;;;;;;;12.20;11.10;;;;;;;23.69;83.56;96212.11;1668176;83;21039;-83
2022/08/17 08:35:35;;;;;;;14.95;13.53;;;;;;;23.81;84.18;96221.37;1671983;83;21016;-84
2022/08/17 08:38:36;;;;;;;15.58;13.98;;;;;;;23.94;82.23;96221.34;1649836;85;21102;-84
2022/08/17 08:41:37;;;;;;;14.45;12.95;;;;;;;24.02;81.12;96221.30;1690949;83;21048;-85
2022/08/17 08:44:28;;;;;;;14.00;12.53;;;;;;;24.16;81.72;96219.66;1696424;83;21074;-84
2022/08/17 08:47:28;;;;;;;16.42;12.93;;;;;;;24.28;81.43;96225.45;1685462;83;20956;-84
2022/08/17 08:50:32;;;;;;;14.25;12.85;;;;;;;24.41;80.86;96219.59;1685165;83;21561;-84
2022/08/17 08:53:50;;;;;;;14.33;12.93;;;;;;;24.52;80.73;96218.98;1691934;83;20965;-83
2022/08/17 08:56:49;;;;;;;12.37;11.18;;;;;;;24.61;77.09;96217.89;1696944;83;21466;-84
2022/08/17 08:59:39;;;;;;;12.58;11.38;;;;;;;24.71;80.10;96216.48;1683812;85;21011;-84
2022/08/17 09:02:40;;;;;;;13.38;12.05;;;;;;;24.82;80.86;96219.34;1690684;83;20989;-84
2022/08/17 09:05:21;;;;;;;12.93;11.75;;;;;;;24.88;77.39;96223.55;1694852;83;21066;-85
2022/08/17 09:08:11;;;;;;;11.73;10.53;;;;;;;24.93;76.94;96222.20;1676874;84;21043;-84
2022/08/17 09:11:21;;;;;;;13.00;11.68;;;;;;;25.12;78.39;96226.34;1674257;83;21016;-82
2022/08/17 09:13:56;;;;;;;11.95;10.80;;;;;;;25.12;78.39;96226.34;1669378;83;21019;-83
2022/08/17 09:16:34;;;;;;;11.57;10.53;;;;;;;25.13;74.26;96229.26;1674914;83;20996;-82
2022/08/17 09:19:35;;;;;;;12.80;11.60;;;;;;;25.13;74.26;96229.26;1672827;83;21004;-82
2022/08/17 09:22:10;;;;;;;13.48;11.43;;;;;;;25.20;74.32;96231.05;1680483;83;20957;-82
2022/08/17 09:24:42;;;;;;;12.58;11.30;;;;;;;25.34;73.81;96231.21;1681251;84;20996;-82
2022/08/17 09:27:37;;;;;;;12.63;11.33;;;;;;;25.34;73.81;96231.21;1686830;83;21025;-83
2022/08/17 09:30:07;;;;;;;11.95;10.88;;;;;;;25.44;73.81;96227.94;1689763;83;22440;-82
2022/08/17 09:32:54;;;;;;;13.18;11.73;;;;;;;25.52;73.28;96228.39;1674405;84;20976;-82
2022/08/17 09:35:38;;;;;;;11.05;10.10;;;;;;;25.63;70.72;96239.20;1696316;83;21065;-82
2022/08/17 09:38:41;;;;;;;13.58;11.63;;;;;;;25.63;70.72;96239.20;1662350;85;20958;-81
2022/08/17 09:41:39;;;;;;;12.82;11.55;;;;;;;25.65;71.02;96234.39;1689681;83;21041;-81
2022/08/17 09:44:26;;;;;;;12.47;11.33;;;;;;;25.69;71.83;96233.57;1671617;85;20960;-81
2022/08/17 09:46:56;;;;;;;10.82;9.78;;;;;;;25.76;74.04;96235.92;1676996;85;21025;-80
2022/08/17 09:49:36;;;;;;;12.40;11.12;;;;;;;25.69;69.44;96234.91;1693723;83;21348;-81
2022/08/17 09:52:16;;;;;;;11.73;10.45;;;;;;;25.71;71.11;96236.77;1673675;83;21057;-80
2022/08/17 09:54:43;;;;;;;11.78;10.58;;;;;;;25.71;70.91;96238.64;1692587;83;21032;-81
2022/08/17 09:57:41;;;;;;;12.75;10.85;;;;;;;25.64;71.42;96234.93;1625874;84;21095;-81
2022/08/17 10:00:26;;;;;;;12.15;10.98;;;;;;;25.69;72.52;96226.13;1691076;83;20992;-81
2022/08/17 10:03:08;;;;;;;14.90;12.43;;;;;;;25.80;71.94;96223.62;1619702;86;21080;-81
2022/08/17 10:05:56;;;;;;;13.85;12.13;;;;;;;25.88;70.78;96220.36;1683310;83;21004;-83
2022/08/17 10:08:31;;;;;;;12.13;10.43;;;;;;;25.95;70.08;96216.02;1681796;83;21068;-83
2022/08/17 10:14:50;;;;;;;11.60;10.40;;;;;;;25.89;70.12;96219.28;1658403;85;21017;-83
2022/08/17 10:17:49;;;;;;;11.60;10.35;;;;;;;25.72;71.08;96220.27;1655164;84;21001;-80
2022/08/17 10:20:20;;;;;;;10.45;9.55;;;;;;;25.77;69.51;96222.87;1651528;85;20953;-81
2022/08/17 10:26:11;;;;;;;10.40;9.28;;;;;;;25.94;67.57;96227.75;1651284;85;21080;-80
2022/08/17 10:28:24;;;;;;;11.85;10.70;;;;;;;26.05;71.59;96227.11;1653587;85;21048;-80
2022/08/17 10:30:54;;;;;;;10.13;9.13;;;;;;;26.08;67.79;96235.85;1661732;85;21012;-80
2022/08/17 10:33:24;;;;;;;11.33;10.18;;;;;;;26.17;68.05;96231.47;1656533;85;21048;-81
2022/08/17 10:36:11;;;;;;;11.60;10.40;;;;;;;26.28;66.13;96231.61;1657577;85;22123;-82
2022/08/17 10:38:48;;;;;;;11.53;10.53;;;;;;;26.37;66.46;96232.61;1657764;85;20981;-81
2022/08/17 10:41:42;;;;;;;10.60;9.70;;;;;;;26.48;67.87;96234.58;1660611;85;21003;-81
2022/08/17 10:44:23;;;;;;;10.93;9.93;;;;;;;26.59;67.65;96228.84;1631200;86;20999;-80
2022/08/17 10:47:09;;;;;;;10.30;9.30;;;;;;;26.69;66.44;96226.59;1659520;85;21091;-81
2022/08/17 10:49:48;;;;;;;11.10;10.00;;;;;;;26.80;65.91;96220.55;1661583;85;20990;-80
2022/08/17 10:52:29;;;;;;;10.68;9.60;;;;;;;26.86;64.95;96224.75;1659200;85;21035;-81
2022/08/17 10:55:14;;;;;;;10.45;9.53;;;;;;;26.94;66.61;96229.41;1666826;85;21080;-81
2022/08/17 10:57:43;;;;;;;10.60;9.43;;;;;;;26.80;63.90;96228.55;1658392;84;21012;-81
2022/08/17 11:00:20;;;;;;;10.58;9.58;;;;;;;26.76;65.18;96227.02;1619884;86;21057;-81
2022/08/17 11:02:53;;;;;;;10.58;9.60;;;;;;;26.84;66.86;96222.89;1662748;85;21419;-82
2022/08/17 11:05:46;;;;;;;10.58;9.58;;;;;;;26.87;66.86;96223.13;1665015;85;20962;-80
2022/08/17 11:08:36;;;;;;;11.00;9.88;;;;;;;26.95;67.22;96224.88;1663829;85;20958;-81
2022/08/17 11:11:35;;;;;;;10.38;9.38;;;;;;;27.04;66.08;96225.30;1648635;85;21395;-82
2022/08/17 11:14:28;;;;;;;10.70;9.70;;;;;;;27.01;62.61;96221.06;1658428;85;21033;-83
2022/08/17 11:17:42;;;;;;;10.25;9.35;;;;;;;27.00;63.24;96217.61;1655679;85;21052;-82
2022/08/17 11:20:26;;;;;;;11.08;9.10;;;;;;;27.02;64.07;96224.80;1658621;84;21037;-82
2022/08/17 11:23:13;;;;;;;10.00;9.20;;;;;;;26.93;63.62;96225.95;1651576;85;21417;-80
2022/08/17 11:25:54;;;;;;;10.40;9.40;;;;;;;27.06;62.56;96222.34;1651424;85;21040;-83
2022/08/17 11:28:26;;;;;;;10.68;9.68;;;;;;;27.20;61.73;96230.66;1663679;85;21491;-83
2022/08/17 11:30:58;;;;;;;10.35;9.43;;;;;;;27.28;62.10;96230.52;1654151;85;21040;-81
2022/08/17 11:33:39;;;;;;;10.03;9.13;;;;;;;27.39;60.40;96227.15;1664305;84;20989;-82
2022/08/17 11:36:28;;;;;;;11.12;10.08;;;;;;;27.47;61.39;96226.46;1655270;85;21012;-82
2022/08/17 11:39:27;;;;;;;11.03;10.08;;;;;;;27.58;61.29;96229.22;1655184;84;21342;-83
2022/08/17 11:42:12;;;;;;;11.48;10.45;;;;;;;27.72;61.11;96233.27;1659043;84;20975;-83
2022/08/17 11:44:54;;;;;;;11.68;10.48;;;;;;;27.75;61.58;96230.80;1664498;85;21032;-83
2022/08/17 11:53:41;;;;;;;11.68;10.53;;;;;;;27.31;60.73;96217.92;1663467;85;21383;-83
2022/08/17 11:56:10;;;;;;;10.70;9.70;;;;;;;27.44;60.39;96216.38;1658115;85;20941;-82
2022/08/17 11:58:43;;;;;;;10.70;9.80;;;;;;;27.54;59.80;96215.42;1659786;85;21020;-82
2022/08/17 12:01:27;;;;;;;11.00;10.00;;;;;;;27.56;60.49;96212.70;1659979;85;21033;-82
2022/08/17 12:04:02;;;;;;;11.00;9.90;;;;;;;27.62;59.87;96214.73;1652835;84;21017;-82
2022/08/17 12:06:59;;;;;;;9.90;9.10;;;;;;;27.70;62.40;96216.22;1653000;84;21012;-80
2022/08/17 12:09:30;;;;;;;12.98;9.48;;;;;;;27.63;60.42;96206.46;1652698;84;20996;-80
2022/08/17 12:12:02;;;;;;;10.03;9.08;;;;;;;27.49;60.51;96205.06;1663021;83;21827;-81
2022/08/17 12:14:32;;;;;;;10.05;9.15;;;;;;;27.60;60.01;96204.89;1679588;83;21410;-81
2022/08/17 12:17:08;;;;;;;9.40;8.48;;;;;;;27.74;60.76;96208.41;1684923;83;21048;-80
2022/08/17 12:19:36;;;;;;;10.48;9.48;;;;;;;27.87;61.50;96200.96;1680509;83;21027;-81
2022/08/17 12:22:30;;;;;;;10.08;9.18;;;;;;;27.99;60.03;96195.14;1685732;83;21068;-81
2022/08/17 12:25:18;;;;;;;10.32;9.33;;;;;;;28.06;59.81;96193.64;1678824;83;21123;-81
2022/08/17 12:27:47;;;;;;;10.60;9.48;;;;;;;28.10;59.77;96189.27;1679023;83;20950;-81
2022/08/17 12:30:15;;;;;;;10.50;9.30;;;;;;;28.17;60.00;96198.23;1678476;84;21011;-81
2022/08/17 12:32:44;;;;;;;9.58;8.75;;;;;;;28.30;59.74;96194.77;1677936;83;21024;-79
2022/08/17 12:35:35;;;;;;;10.23;9.25;;;;;;;28.39;58.75;96196.20;1677136;83;21080;-80
2022/08/17 12:38:02;;;;;;;8.75;8.03;;;;;;;28.48;58.77;96198.97;1616696;86;21400;-79
2022/08/17 12:40:30;;;;;;;9.95;8.95;;;;;;;28.51;56.89;96199.16;1645816;86;21012;-80
2022/08/17 12:43:07;;;;;;;9.50;8.50;;;;;;;28.22;57.50;96200.80;1621954;87;21019;-80
2022/08/17 12:45:40;;;;;;;9.05;8.15;;;;;;;28.13;58.03;96199.11;1689202;83;21008;-80